Time;durP1;ratioP1;P1;durP2;ratioP2;P2;SDS_P1;SDS_P2;PMS_P1;PMS_P2;Temp;Humidity;BMP_temperature;BMP_pressure;BME280_temperature;BME280_humidity;BME280_pressure;Samples;Min_cycle;Max_cycle;Signal;HPM_P1;HPM_P2
2023/05/30 00:01:30;;;;;;;7.18;2.75;;;;;;;16.36;44.75;99669.25;5090454;28;20080;-48
2023/05/30 00:03:56;;;;;;;9.32;3.30;;;;;;;16.34;44.56;99665.88;5090922;28;20164;-45
2023/05/30 00:06:22;;;;;;;7.43;2.97;;;;;;;16.34;44.81;99660.63;5091437;28;20544;-47
2023/05/30 00:08:48;;;;;;;6.05;2.97;;;;;;;16.33;45.07;99663.34;5091102;28;20040;-44
2023/05/30 00:11:13;;;;;;;9.10;3.08;;;;;;;16.32;44.97;99657.25;5072754;28;20036;-45
2023/05/30 00:13:42;;;;;;;4.78;2.85;;;;;;;16.32;44.66;99662.50;5070842;28;20505;-44
2023/05/30 00:16:08;;;;;;;8.27;2.83;;;;;;;16.33;45.02;99658.94;5081915;28;20135;-45
2023/05/30 00:18:35;;;;;;;6.70;3.22;;;;;;;16.32;45.40;99659.03;5084281;28;20040;-46
2023/05/30 00:21:05;;;;;;;7.60;3.10;;;;;;;16.32;45.38;99653.78;5072874;28;20047;-48
2023/05/30 00:23:32;;;;;;;7.88;3.20;;;;;;;16.06;45.17;99614.19;5069368;28;20036;-45
2023/05/30 00:26:03;;;;;;;8.68;3.78;;;;;;;16.33;44.72;99656.31;5051841;28;20051;-45
2023/05/30 00:28:29;;;;;;;5.53;3.15;;;;;;;16.35;44.51;99662.31;5060907;28;20446;-48
2023/05/30 00:30:55;;;;;;;5.20;2.72;;;;;;;16.33;44.28;99652.84;5069596;28;20069;-46
2023/05/30 00:33:21;;;;;;;7.03;2.53;;;;;;;16.35;43.74;99654.44;5065859;28;20059;-49
2023/05/30 00:35:48;;;;;;;8.43;2.85;;;;;;;16.34;43.65;99655.38;5071580;28;20044;-45
2023/05/30 00:38:14;;;;;;;6.28;2.58;;;;;;;16.36;43.25;99661.38;5087631;28;20047;-44
2023/05/30 00:40:40;;;;;;;7.28;2.67;;;;;;;16.35;43.61;99658.84;5071485;28;20044;-44
2023/05/30 00:43:06;;;;;;;6.75;3.30;;;;;;;16.35;44.14;99661.47;5087304;28;20694;-46
2023/05/30 00:45:32;;;;;;;6.50;3.13;;;;;;;16.19;44.62;99635.28;5069914;28;20044;-44
2023/05/30 00:47:59;;;;;;;6.10;2.75;;;;;;;16.28;45.41;99658.34;5089929;28;20031;-45
2023/05/30 00:50:26;;;;;;;5.30;2.95;;;;;;;16.27;45.59;99651.44;5064141;28;20044;-47
2023/05/30 00:52:53;;;;;;;7.20;3.05;;;;;;;16.07;45.75;99628.97;5088901;28;20047;-47
2023/05/30 00:55:19;;;;;;;8.45;3.03;;;;;;;16.18;46.16;99649.31;5059554;28;20846;-44
2023/05/30 00:57:46;;;;;;;7.25;3.75;;;;;;;16.15;46.78;99657.38;5051822;28;20071;-49
2023/05/30 01:00:13;;;;;;;11.65;3.55;;;;;;;16.09;47.32;99655.09;5071184;28;20562;-47
2023/05/30 01:02:40;;;;;;;10.30;3.33;;;;;;;16.02;47.89;99657.22;5071519;28;20044;-46
2023/05/30 01:05:06;;;;;;;5.78;2.83;;;;;;;16.00;47.72;99650.41;5089974;28;20093;-45
2023/05/30 01:07:33;;;;;;;6.45;2.60;;;;;;;15.92;47.67;99658.69;5089758;28;20036;-45
2023/05/30 01:09:59;;;;;;;10.88;3.15;;;;;;;15.70;47.69;99612.81;5061761;28;20048;-45
2023/05/30 01:12:47;;;;;;;7.30;2.85;;;;;;;15.90;47.77;99654.47;5053306;28;20041;-48
2023/05/30 01:15:21;;;;;;;8.68;3.13;;;;;;;15.87;48.52;99652.84;5067686;28;20047;-49
2023/05/30 01:18:12;;;;;;;5.45;3.00;;;;;;;15.85;48.67;99651.25;5063614;28;20063;-47
2023/05/30 01:20:44;;;;;;;8.93;3.60;;;;;;;15.82;48.75;99649.66;5062768;28;20044;-45
2023/05/30 01:23:30;;;;;;;7.63;3.35;;;;;;;15.82;48.70;99652.28;5051104;28;20070;-46
2023/05/30 01:26:26;;;;;;;8.27;3.47;;;;;;;15.80;48.78;99656.78;5032219;28;20040;-44
2023/05/30 01:28:55;;;;;;;6.80;2.42;;;;;;;15.76;48.92;99649.13;5051047;28;20044;-46
2023/05/30 01:31:23;;;;;;;6.95;2.72;;;;;;;15.73;48.96;99655.41;5070871;28;20071;-48
2023/05/30 01:33:49;;;;;;;6.07;2.67;;;;;;;15.71;49.02;99649.41;5086701;28;20112;-49
2023/05/30 01:36:15;;;;;;;9.05;2.83;;;;;;;15.72;49.50;99650.25;5070213;28;20090;-44
2023/05/30 01:38:41;;;;;;;8.77;3.03;;;;;;;15.67;49.80;99643.50;5070191;28;20036;-45
2023/05/30 01:41:33;;;;;;;7.70;2.95;;;;;;;15.73;49.66;99655.41;5068120;28;20036;-52
2023/05/30 01:44:11;;;;;;;8.30;3.03;;;;;;;15.57;50.01;99629.22;5058657;28;20062;-47
2023/05/30 01:46:39;;;;;;;7.85;2.83;;;;;;;15.73;49.69;99657.19;5035977;28;20061;-49
2023/05/30 01:49:33;;;;;;;6.57;2.67;;;;;;;15.72;49.73;99655.50;5039559;28;20036;-43
2023/05/30 01:52:12;;;;;;;5.93;2.65;;;;;;;15.70;49.64;99646.88;5071192;28;20044;-47
2023/05/30 01:54:38;;;;;;;;;;;;;;;15.69;49.98;99651.28;5054558;28;20532;-45
2023/05/30 01:57:12;;;;;;;6.18;2.70;;;;;;;15.62;49.87;99649.91;5052983;28;19922;-45
2023/05/30 01:59:39;;;;;;;6.65;3.40;;;;;;;15.46;50.11;99628.91;5070900;28;20044;-47
2023/05/30 02:02:05;;;;;;;7.20;3.10;;;;;;;15.53;50.72;99645.19;5055853;28;20052;-49
2023/05/30 02:04:31;;;;;;;10.80;3.30;;;;;;;15.46;51.11;99654.28;5079925;28;20051;-47
2023/05/30 02:06:57;;;;;;;8.00;3.15;;;;;;;15.39;51.38;99645.03;5070772;28;20121;-46
2023/05/30 02:09:25;;;;;;;10.90;4.18;;;;;;;15.33;52.07;99654.13;5070681;28;20067;-47
2023/05/30 02:11:50;;;;;;;10.40;3.30;;;;;;;15.28;52.33;99656.13;5070973;28;20043;-50
2023/05/30 02:14:16;;;;;;;9.38;3.55;;;;;;;15.20;53.16;99646.06;5070101;28;20040;-54
2023/05/30 02:16:44;;;;;;;10.30;3.70;;;;;;;15.12;53.46;99642.19;5070701;28;20139;-44
2023/05/30 02:19:16;;;;;;;8.43;3.20;;;;;;;15.06;54.20;99655.59;5074240;28;20040;-44
2023/05/30 02:22:03;;;;;;;8.80;3.80;;;;;;;14.99;54.76;99662.91;5065749;28;20423;-45
2023/05/30 02:24:28;;;;;;;9.40;3.50;;;;;;;14.92;54.81;99653.69;5069722;28;20048;-46
2023/05/30 02:26:54;;;;;;;12.10;3.55;;;;;;;14.89;55.21;99655.63;5059624;28;20040;-43
2023/05/30 02:29:20;;;;;;;9.40;4.13;;;;;;;14.84;55.71;99651.47;5050525;28;20536;-44
2023/05/30 02:31:47;;;;;;;12.88;4.20;;;;;;;14.78;56.00;99657.03;5068320;28;20114;-45
2023/05/30 02:34:12;;;;;;;11.63;4.18;;;;;;;14.75;56.16;99657.19;5083347;28;20036;-44
2023/05/30 02:36:39;;;;;;;9.38;3.75;;;;;;;14.74;56.50;99658.13;5068658;28;20487;-45
2023/05/30 02:39:08;;;;;;;14.63;4.05;;;;;;;14.70;56.78;99646.13;5066436;28;20048;-47
2023/05/30 02:41:37;;;;;;;13.98;4.15;;;;;;;14.68;56.94;99654.97;5069618;28;20042;-44
2023/05/30 02:44:04;;;;;;;9.90;4.28;;;;;;;14.63;57.13;99647.34;5068066;28;20586;-46
2023/05/30 02:46:31;;;;;;;8.70;4.15;;;;;;;14.66;57.43;99643.72;5069548;28;20120;-43
2023/05/30 02:48:57;;;;;;;8.55;4.18;;;;;;;14.51;57.60;99634.03;5085964;28;20036;-44
2023/05/30 02:51:24;;;;;;;14.32;4.30;;;;;;;14.62;57.79;99645.66;5067861;28;20048;-44
2023/05/30 02:53:50;;;;;;;14.10;4.32;;;;;;;14.64;58.23;99656.06;5052377;28;20701;-43
2023/05/30 02:56:24;;;;;;;11.52;4.50;;;;;;;14.48;58.43;99626.38;5078819;28;20072;-43
2023/05/30 02:59:06;;;;;;;12.45;3.88;;;;;;;14.47;58.83;99628.13;5068694;28;20112;-44
2023/05/30 03:01:44;;;;;;;11.88;3.95;;;;;;;14.61;58.41;99654.44;5071066;28;20039;-45
2023/05/30 03:04:12;;;;;;;13.32;4.68;;;;;;;14.58;58.51;99651.97;5066993;28;20723;-44
2023/05/30 03:06:44;;;;;;;12.77;4.43;;;;;;;14.65;58.68;99649.91;5065841;28;20512;-43
2023/05/30 03:09:17;;;;;;;19.33;4.75;;;;;;;14.67;58.63;99651.50;5069857;28;20393;-45
2023/05/30 03:11:43;;;;;;;14.40;4.88;;;;;;;14.57;58.70;99631.13;5052763;28;20048;-44
2023/05/30 03:14:10;;;;;;;10.45;4.60;;;;;;;14.77;58.96;99655.34;5068928;28;20138;-45
2023/05/30 03:16:36;;;;;;;11.75;4.55;;;;;;;14.84;58.99;99655.88;5071379;28;20609;-45
2023/05/30 03:19:05;;;;;;;9.73;4.60;;;;;;;14.90;58.66;99660.78;5055916;28;20052;-44
2023/05/30 03:21:32;;;;;;;13.57;4.53;;;;;;;15.03;58.40;99661.81;5056072;28;20526;-45
2023/05/30 03:24:00;;;;;;;13.27;4.78;;;;;;;15.10;58.17;99659.72;5041184;28;20047;-46
2023/05/30 03:26:30;;;;;;;11.00;4.80;;;;;;;15.15;57.82;99657.72;5069462;28;20526;-44
2023/05/30 03:28:56;;;;;;;13.55;5.30;;;;;;;15.22;57.40;99657.31;5070876;28;20146;-46
2023/05/30 03:31:24;;;;;;;16.45;4.68;;;;;;;15.31;56.65;99660.34;5072363;28;20042;-45
2023/05/30 03:33:51;;;;;;;8.55;4.18;;;;;;;15.38;55.78;99659.09;5073492;28;20044;-46
2023/05/30 03:36:18;;;;;;;14.38;4.35;;;;;;;15.36;54.96;99648.69;5071549;28;20040;-45
2023/05/30 03:38:45;;;;;;;11.52;4.35;;;;;;;15.50;54.53;99661.88;5071661;28;20575;-47
2023/05/30 03:41:12;;;;;;;13.90;5.05;;;;;;;15.58;53.91;99658.88;5072620;28;20561;-44
2023/05/30 03:43:38;;;;;;;12.25;4.32;;;;;;;15.66;52.89;99664.53;5042022;28;20036;-47
2023/05/30 03:46:04;;;;;;;11.23;4.57;;;;;;;15.75;52.18;99663.19;5087413;28;20159;-44
2023/05/30 03:48:30;;;;;;;8.82;4.35;;;;;;;15.84;51.48;99662.69;5087913;28;20039;-47
2023/05/30 03:50:56;;;;;;;10.93;4.82;;;;;;;15.74;51.28;99630.03;5072594;28;20044;-44
2023/05/30 03:53:21;;;;;;;14.75;7.78;;;;;;;15.81;51.12;99634.84;5073078;28;20529;-47
2023/05/30 03:55:47;;;;;;;16.48;7.05;;;;;;;16.06;50.54;99661.38;5073138;28;20047;-46
2023/05/30 03:58:13;;;;;;;13.35;5.78;;;;;;;16.15;50.27;99659.16;5069140;28;20114;-45
2023/05/30 04:00:39;;;;;;;10.73;5.35;;;;;;;16.02;49.74;99625.75;5068924;28;20044;-46
2023/05/30 04:03:05;;;;;;;11.98;5.38;;;;;;;16.30;49.79;99656.50;5073242;28;20028;-47
2023/05/30 04:05:31;;;;;;;12.32;4.95;;;;;;;16.31;49.63;99650.31;5072325;28;20055;-49
2023/05/30 04:07:59;;;;;;;12.43;5.45;;;;;;;16.43;49.51;99656.63;5055670;28;20032;-46
2023/05/30 04:10:24;;;;;;;16.02;5.25;;;;;;;16.50;49.08;99644.81;5072901;28;20499;-48
2023/05/30 04:12:51;;;;;;;12.15;4.82;;;;;;;16.61;48.76;99654.72;5073001;28;20068;-47
2023/05/30 04:15:18;;;;;;;16.17;5.85;;;;;;;16.69;48.38;99649.88;5035568;28;20033;-47
2023/05/30 04:17:44;;;;;;;9.70;5.05;;;;;;;16.75;48.15;99655.56;5052817;28;20056;-44
2023/05/30 04:20:11;;;;;;;8.88;4.63;;;;;;;16.83;48.23;99658.59;5055930;28;20046;-46
2023/05/30 04:22:38;;;;;;;8.90;4.50;;;;;;;16.92;48.09;99655.41;5089328;28;20036;-47
2023/05/30 04:25:05;;;;;;;13.73;4.50;;;;;;;17.05;47.88;99654.66;5072457;28;20565;-49
2023/05/30 04:27:32;;;;;;;14.77;5.22;;;;;;;17.14;47.77;99656.72;5055724;28;20107;-48
2023/05/30 04:30:03;;;;;;;9.77;4.45;;;;;;;17.23;47.25;99654.38;5070363;28;20126;-47
2023/05/30 04:32:33;;;;;;;9.15;4.97;;;;;;;17.32;46.80;99656.41;5050383;28;20440;-44
2023/05/30 04:35:01;;;;;;;9.80;4.18;;;;;;;17.29;46.95;99635.59;5071799;28;20059;-41
2023/05/30 04:37:27;;;;;;;6.07;3.38;;;;;;;17.46;46.20;99625.81;5072714;28;20039;-47
2023/05/30 04:39:58;;;;;;;7.50;2.80;;;;;;;17.82;44.49;99664.72;5055915;28;20055;-45
2023/05/30 04:42:27;;;;;;;;;;;;;;;17.95;42.87;99663.81;5071249;28;20408;-44
2023/05/30 04:44:54;;;;;;;8.10;2.83;;;;;;;18.00;42.33;99660.91;5057842;28;19970;-44
2023/05/30 04:47:24;;;;;;;7.20;2.72;;;;;;;18.06;42.05;99660.47;5089886;28;20496;-47
2023/05/30 04:49:53;;;;;;;3.85;2.08;;;;;;;18.13;41.55;99654.72;5071920;28;20054;-47
2023/05/30 04:52:20;;;;;;;6.60;1.80;;;;;;;18.13;41.00;99630.19;5077376;28;20040;-45
2023/05/30 04:54:46;;;;;;;3.75;1.80;;;;;;;18.35;40.49;99648.06;5075464;28;20139;-44
2023/05/30 04:57:15;;;;;;;7.80;1.60;;;;;;;18.31;39.81;99630.78;5080796;28;20188;-47
2023/05/30 04:59:42;;;;;;;3.08;1.80;;;;;;;18.41;39.20;99648.50;5090763;28;20182;-46
2023/05/30 05:02:09;;;;;;;3.20;1.95;;;;;;;18.36;39.00;99626.06;5055898;28;20035;-46
2023/05/30 05:04:34;;;;;;;4.22;1.60;;;;;;;18.61;38.24;99644.53;5058122;28;20078;-46
2023/05/30 05:07:00;;;;;;;4.97;1.70;;;;;;;18.75;37.51;99648.84;5089046;28;20079;-44
2023/05/30 05:09:26;;;;;;;3.60;1.58;;;;;;;18.82;37.55;99635.16;5104188;28;20036;-44
2023/05/30 05:11:53;;;;;;;11.45;1.90;;;;;;;19.05;37.57;99652.84;5054089;28;20036;-46
2023/05/30 05:14:19;;;;;;;6.82;1.88;;;;;;;19.14;37.15;99653.19;5069604;28;20048;-48
2023/05/30 05:16:45;;;;;;;3.90;1.85;;;;;;;19.23;37.37;99642.81;5085102;28;20093;-45
2023/05/30 05:19:11;;;;;;;9.80;2.13;;;;;;;19.24;37.35;99620.78;5087353;28;20043;-45
2023/05/30 05:21:38;;;;;;;7.90;2.20;;;;;;;19.45;37.36;99650.09;5050721;28;20048;-44
2023/05/30 05:24:05;;;;;;;5.80;2.38;;;;;;;19.32;36.78;99628.97;5084328;28;20154;-49
2023/05/30 05:26:31;;;;;;;6.53;2.40;;;;;;;19.51;36.62;99646.16;5070527;28;20170;-44
2023/05/30 05:28:58;;;;;;;7.03;2.00;;;;;;;19.69;36.78;99652.75;5088289;28;20664;-45
2023/05/30 05:31:24;;;;;;;4.57;2.10;;;;;;;19.80;36.80;99640.47;5082670;28;20044;-51
2023/05/30 05:33:50;;;;;;;7.45;2.13;;;;;;;19.79;36.32;99648.50;5087911;28;20038;-50
2023/05/30 05:36:15;;;;;;;7.13;1.85;;;;;;;19.67;36.41;99641.47;5092354;28;20078;-47
2023/05/30 05:38:41;;;;;;;6.47;2.20;;;;;;;19.65;36.72;99641.59;5088851;28;20044;-50
2023/05/30 05:41:07;;;;;;;5.95;2.20;;;;;;;19.59;36.41;99639.38;5088010;28;20085;-50
2023/05/30 05:43:33;;;;;;;6.03;1.80;;;;;;;19.60;36.29;99642.88;5079574;28;20606;-52
2023/05/30 05:45:59;;;;;;;5.95;2.10;;;;;;;19.58;35.75;99639.47;5088282;28;20051;-52
2023/05/30 05:48:25;;;;;;;3.72;1.70;;;;;;;19.73;35.79;99644.50;5070736;28;20040;-48
2023/05/30 05:50:51;;;;;;;5.90;1.65;;;;;;;19.65;35.14;99617.00;5091297;28;20496;-50
2023/05/30 05:53:17;;;;;;;4.88;1.63;;;;;;;19.89;34.65;99621.31;5081240;28;20056;-48
2023/05/30 05:55:44;;;;;;;2.33;1.55;;;;;;;20.15;34.62;99629.94;5063223;28;20431;-48
2023/05/30 05:58:10;;;;;;;5.50;2.17;;;;;;;20.34;34.69;99631.25;5068241;28;20039;-49
2023/05/30 06:00:36;;;;;;;4.15;1.55;;;;;;;20.47;34.71;99635.47;5085915;28;20419;-48
2023/05/30 06:03:02;;;;;;;3.28;1.48;;;;;;;20.51;33.73;99630.81;5071454;28;20036;-51
2023/05/30 06:05:28;;;;;;;5.38;1.17;;;;;;;20.57;32.87;99630.34;5086777;28;20497;-48
2023/05/30 06:07:57;;;;;;;5.63;1.30;;;;;;;20.56;32.24;99636.59;5085515;28;20039;-47
2023/05/30 06:10:24;;;;;;;8.50;1.50;;;;;;;20.50;32.09;99613.28;5063614;28;20073;-52
2023/05/30 06:12:50;;;;;;;10.27;1.40;;;;;;;20.59;31.80;99628.44;5066443;28;20040;-48
2023/05/30 06:15:16;;;;;;;3.35;1.20;;;;;;;20.48;31.63;99623.97;5087162;28;20509;-48
2023/05/30 06:17:42;;;;;;;4.38;1.80;;;;;;;20.28;31.81;99617.53;5080984;28;20051;-49
2023/05/30 06:20:08;;;;;;;2.15;1.20;;;;;;;20.05;31.89;99585.88;5084587;28;20126;-51
2023/05/30 06:22:34;;;;;;;4.93;1.42;;;;;;;20.37;31.73;99597.53;5067589;28;20036;-50
2023/05/30 06:25:00;;;;;;;4.88;1.35;;;;;;;20.75;31.14;99621.00;5082117;28;20035;-48
2023/05/30 06:27:26;;;;;;;2.85;1.33;;;;;;;21.08;31.13;99623.69;5080623;28;20043;-52
2023/05/30 06:29:53;;;;;;;4.35;1.27;;;;;;;21.48;30.71;99617.88;5084945;28;20122;-45
2023/05/30 06:32:19;;;;;;;3.05;1.60;;;;;;;21.76;30.17;99616.50;5050682;28;20054;-51
2023/05/30 06:34:48;;;;;;;3.80;1.30;;;;;;;22.16;29.84;99584.97;5049530;28;20041;-48
2023/05/30 06:37:14;;;;;;;5.07;1.38;;;;;;;22.83;29.12;99587.19;5064731;28;20135;-50
2023/05/30 06:39:40;;;;;;;3.63;1.30;;;;;;;23.70;27.24;99609.56;5066336;28;20036;-49
2023/05/30 06:42:08;;;;;;;3.75;1.65;;;;;;;24.74;26.28;99615.81;5078977;28;20050;-50
2023/05/30 06:44:37;;;;;;;3.75;1.42;;;;;;;25.23;25.50;99606.69;5031065;28;20036;-46
2023/05/30 06:47:04;;;;;;;5.20;1.70;;;;;;;24.88;25.78;99615.38;5047563;28;20040;-48
2023/05/30 06:49:30;;;;;;;3.38;1.40;;;;;;;25.63;24.73;99611.69;5084826;28;20036;-49
2023/05/30 06:51:56;;;;;;;4.63;1.73;;;;;;;24.91;24.99;99589.50;5066654;28;20193;-48
2023/05/30 06:54:22;;;;;;;8.10;1.40;;;;;;;24.62;25.33;99609.00;5066310;28;20091;-49
2023/05/30 06:56:48;;;;;;;4.28;1.55;;;;;;;24.03;25.69;99609.16;5083940;28;20101;-54
2023/05/30 06:59:14;;;;;;;2.75;1.10;;;;;;;23.54;26.00;99600.34;5069270;28;20055;-49
2023/05/30 07:01:40;;;;;;;3.20;1.40;;;;;;;23.45;26.29;99585.19;5090952;28;20044;-48
2023/05/30 07:04:06;;;;;;;6.07;1.70;;;;;;;25.88;24.24;99590.63;5080597;28;20063;-50
2023/05/30 07:06:32;;;;;;;5.32;1.70;;;;;;;28.45;22.60;99597.34;5055930;28;20079;-46
2023/05/30 07:08:58;;;;;;;3.58;1.90;;;;;;;29.60;21.78;99593.31;5083163;28;20024;-49
2023/05/30 07:11:24;;;;;;;7.32;1.50;;;;;;;28.65;22.49;99593.28;5089168;28;20094;-51
2023/05/30 07:13:50;;;;;;;6.60;2.42;;;;;;;27.65;23.32;99592.75;5090073;28;20069;-49
2023/05/30 07:16:16;;;;;;;4.18;1.50;;;;;;;26.94;23.74;99593.97;5067390;28;20040;-49
2023/05/30 07:18:42;;;;;;;2.33;1.60;;;;;;;26.26;23.73;99586.81;5092646;28;20040;-50
2023/05/30 07:21:08;;;;;;;3.33;1.67;;;;;;;28.39;22.27;99589.97;5099102;28;20131;-49
2023/05/30 07:23:35;;;;;;;4.55;1.55;;;;;;;29.71;20.17;99588.38;5082470;28;20051;-48
2023/05/30 07:26:01;;;;;;;1.90;1.23;;;;;;;30.73;19.03;99592.41;5084202;28;20036;-46
2023/05/30 07:28:27;;;;;;;4.20;1.65;;;;;;;31.21;18.94;99572.25;5068511;28;20043;-47
2023/05/30 07:30:52;;;;;;;2.78;1.60;;;;;;;32.46;17.71;99556.56;5089902;28;20036;-48
2023/05/30 07:33:18;;;;;;;4.05;1.75;;;;;;;33.90;17.24;99586.94;5057072;28;20113;-46
2023/05/30 07:35:45;;;;;;;4.07;1.88;;;;;;;35.36;16.53;99583.06;5070407;28;20080;-46
2023/05/30 07:38:11;;;;;;;4.25;1.60;;;;;;;35.43;15.59;99566.81;5087914;28;20101;-52
2023/05/30 07:40:37;;;;;;;3.22;1.55;;;;;;;35.11;15.54;99580.25;5083679;28;20466;-48
2023/05/30 07:43:02;;;;;;;5.53;1.75;;;;;;;35.62;15.33;99582.94;5087311;28;20132;-47
2023/05/30 07:45:28;;;;;;;3.53;1.60;;;;;;;35.36;15.39;99576.84;5039152;28;20086;-51
2023/05/30 07:47:54;;;;;;;3.40;1.75;;;;;;;35.55;15.15;99575.88;5063943;28;20550;-46
2023/05/30 07:50:20;;;;;;;3.70;1.55;;;;;;;35.95;14.44;99576.53;5071823;28;20489;-50
2023/05/30 07:52:46;;;;;;;3.55;1.85;;;;;;;35.64;14.59;99555.69;5091694;28;20064;-51
2023/05/30 07:55:12;;;;;;;4.97;1.85;;;;;;;35.78;14.67;99576.22;5088606;28;20542;-47
2023/05/30 07:57:38;;;;;;;4.18;1.55;;;;;;;35.48;14.62;99567.84;5085703;28;20044;-51
2023/05/30 08:00:11;;;;;;;2.03;1.70;;;;;;;36.01;14.25;99572.94;5084362;28;20051;-52
2023/05/30 08:02:40;;;;;;;3.78;1.50;;;;;;;35.40;14.46;99567.25;5081398;28;20522;-52
2023/05/30 08:05:06;;;;;;;2.85;1.60;;;;;;;35.17;14.75;99559.63;5066375;28;20043;-51
2023/05/30 08:07:32;;;;;;;2.40;2.03;;;;;;;36.28;14.17;99565.44;5069586;28;20048;-52
2023/05/30 08:09:57;;;;;;;3.83;1.70;;;;;;;36.53;14.10;99560.84;5061371;28;20043;-49
2023/05/30 08:12:28;;;;;;;3.50;1.88;;;;;;;37.26;13.45;99558.19;5086241;28;20044;-55
2023/05/30 08:14:58;;;;;;;2.85;2.05;;;;;;;38.45;12.86;99562.72;5067209;28;20101;-49
2023/05/30 08:17:25;;;;;;;4.22;1.90;;;;;;;39.20;12.56;99569.00;5087401;28;20507;-52
2023/05/30 08:19:55;;;;;;;3.85;1.58;;;;;;;38.52;12.54;99561.50;5052842;28;20586;-50
2023/05/30 08:22:23;;;;;;;3.47;2.05;;;;;;;37.98;12.92;99554.47;5085526;28;20040;-50
2023/05/30 08:24:50;;;;;;;2.78;2.10;;;;;;;38.60;12.47;99551.34;5082497;28;20091;-50
2023/05/30 08:27:17;;;;;;;4.47;2.05;;;;;;;39.93;12.14;99545.66;5068116;28;20063;-52
2023/05/30 08:29:43;;;;;;;3.53;1.83;;;;;;;39.39;12.34;99558.78;5087891;28;20338;-51
2023/05/30 08:32:09;;;;;;;2.47;1.70;;;;;;;36.73;12.95;99547.94;5081427;28;20512;-47
2023/05/30 08:34:36;;;;;;;5.00;1.60;;;;;;;35.25;14.58;99543.19;5063816;28;20097;-48
2023/05/30 08:37:02;;;;;;;4.57;2.47;;;;;;;34.23;15.59;99541.09;5064469;28;20040;-53
2023/05/30 08:39:28;;;;;;;4.22;1.45;;;;;;;33.35;16.25;99535.94;5076530;28;20047;-48
2023/05/30 08:41:54;;;;;;;3.08;1.42;;;;;;;32.72;16.48;99538.75;5076408;28;20431;-50
2023/05/30 08:44:20;;;;;;;3.65;1.88;;;;;;;32.45;17.11;99519.94;5057333;28;20102;-48
2023/05/30 08:46:46;;;;;;;2.83;1.60;;;;;;;33.05;16.60;99530.00;5079597;28;20036;-49
2023/05/30 08:49:13;;;;;;;3.47;1.60;;;;;;;32.39;17.22;99524.25;5052905;28;20036;-50
2023/05/30 08:51:42;;;;;;;5.10;1.67;;;;;;;31.43;18.15;99504.09;5067382;28;20035;-47
2023/05/30 08:54:12;;;;;;;3.50;1.67;;;;;;;30.90;18.77;99528.63;5085682;28;20411;-53
2023/05/30 08:56:42;;;;;;;8.13;1.90;;;;;;;30.09;18.70;99510.72;5068698;28;20411;-54
2023/05/30 08:59:09;;;;;;;5.90;1.75;;;;;;;28.94;19.27;99495.56;5072692;28;20047;-51
2023/05/30 09:01:37;;;;;;;5.78;1.70;;;;;;;28.73;19.42;99506.84;5067684;28;20047;-50
2023/05/30 09:04:05;;;;;;;3.40;1.70;;;;;;;29.75;18.89;99505.75;5058923;28;20241;-51
2023/05/30 09:06:32;;;;;;;6.53;2.30;;;;;;;32.36;17.31;99509.31;5080994;28;20048;-49
2023/05/30 09:08:58;;;;;;;3.38;2.20;;;;;;;34.61;16.24;99508.84;5068280;28;20044;-47
2023/05/30 09:11:27;;;;;;;4.05;1.95;;;;;;;36.14;15.05;99505.16;5065495;28;20048;-51
2023/05/30 09:13:53;;;;;;;2.72;2.08;;;;;;;36.63;14.60;99515.13;5064753;28;20044;-53
2023/05/30 09:16:19;;;;;;;5.47;2.67;;;;;;;37.43;13.73;99515.78;5049163;28;20494;-51
2023/05/30 09:18:46;;;;;;;5.20;2.00;;;;;;;37.62;13.24;99494.91;5079547;28;20086;-56
2023/05/30 09:21:12;;;;;;;2.75;1.92;;;;;;;37.72;12.91;99503.28;5063451;28;20036;-51
2023/05/30 09:23:41;;;;;;;3.13;2.40;;;;;;;38.67;13.20;99512.13;5070180;28;20065;-50
2023/05/30 09:26:10;;;;;;;2.92;1.95;;;;;;;37.14;12.77;99505.78;5080909;28;20565;-53
2023/05/30 09:28:36;;;;;;;2.63;1.80;;;;;;;36.45;13.32;99506.94;5081335;28;20185;-56
2023/05/30 09:31:03;;;;;;;2.05;1.60;;;;;;;36.57;13.33;99497.03;5084241;28;20122;-50
2023/05/30 09:33:50;;;;;;;2.50;1.52;;;;;;;35.82;13.79;99485.41;5068252;28;20602;-52
2023/05/30 09:36:20;;;;;;;4.93;1.98;;;;;;;37.52;13.21;99495.44;5066173;28;20051;-59
2023/05/30 09:39:05;;;;;;;4.57;2.85;;;;;;;39.88;12.49;99489.19;5061833;28;20047;-57
2023/05/30 09:41:32;;;;;;;3.35;1.70;;;;;;;41.24;11.90;99494.91;5048686;28;20128;-59
2023/05/30 09:43:59;;;;;;;6.03;2.15;;;;;;;38.72;12.45;99471.47;5047631;28;20083;-59
2023/05/30 09:46:28;;;;;;;2.47;2.10;;;;;;;39.86;11.61;99485.88;5069631;28;20090;-60
2023/05/30 09:48:55;;;;;;;4.40;2.25;;;;;;;40.61;11.42;99472.59;5070028;28;20040;-54
2023/05/30 09:51:25;;;;;;;3.63;2.63;;;;;;;41.48;10.83;99476.34;5080411;28;20040;-53
2023/05/30 09:54:03;;;;;;;3.30;1.63;;;;;;;41.51;11.12;99464.91;5068057;28;20745;-53
2023/05/30 09:56:29;;;;;;;2.78;2.25;;;;;;;41.78;11.11;99458.31;5068001;28;20040;-62
2023/05/30 09:59:02;;;;;;;5.60;2.15;;;;;;;41.84;10.97;99467.34;5069331;28;20071;-59
2023/05/30 10:01:54;;;;;;;3.55;2.45;;;;;;;41.27;11.14;99467.94;5067825;28;20044;-51
2023/05/30 10:04:24;;;;;;;3.17;2.17;;;;;;;41.43;10.75;99458.81;5076796;28;20090;-59
2023/05/30 10:06:52;;;;;;;4.22;2.47;;;;;;;41.37;10.54;99448.91;5067813;28;20050;-60
2023/05/30 10:09:23;;;;;;;5.05;2.25;;;;;;;41.45;10.34;99447.63;5042478;28;20043;-59
2023/05/30 10:11:49;;;;;;;3.55;2.15;;;;;;;40.19;10.96;99446.91;5085730;28;20048;-58
2023/05/30 10:14:16;;;;;;;3.23;2.10;;;;;;;38.88;11.95;99443.50;5067742;28;20044;-60
2023/05/30 10:17:00;;;;;;;5.63;2.20;;;;;;;37.92;12.48;99443.25;5068402;28;20401;-54
2023/05/30 10:19:48;;;;;;;2.47;1.92;;;;;;;36.90;12.81;99451.41;5069743;28;20036;-52
2023/05/30 10:22:14;;;;;;;5.53;1.80;;;;;;;35.06;14.06;99433.28;5087351;28;20047;-53
2023/05/30 10:24:43;;;;;;;3.28;1.55;;;;;;;34.55;14.48;99427.84;5060614;28;20043;-51
2023/05/30 10:27:11;;;;;;;2.53;1.70;;;;;;;34.88;14.89;99425.03;5087351;28;20043;-58
2023/05/30 10:29:47;;;;;;;6.03;1.95;;;;;;;35.50;14.27;99419.69;5052994;28;20036;-54
2023/05/30 10:32:15;;;;;;;8.55;2.05;;;;;;;35.19;14.41;99438.63;5052199;28;20044;-53
2023/05/30 10:34:54;;;;;;;2.33;1.63;;;;;;;33.59;15.07;99441.88;5083989;28;20748;-54
2023/05/30 10:37:21;;;;;;;4.55;1.88;;;;;;;33.28;15.32;99430.84;5051859;28;20047;-59
2023/05/30 10:40:16;;;;;;;4.50;2.00;;;;;;;33.89;15.35;99417.19;5051342;28;20056;-56
2023/05/30 10:43:06;;;;;;;2.65;1.60;;;;;;;34.53;15.06;99389.44;5064308;28;20551;-60
2023/05/30 10:45:47;;;;;;;3.65;1.95;;;;;;;33.20;16.19;99418.38;5069860;28;20434;-58
2023/05/30 10:48:23;;;;;;;5.88;1.85;;;;;;;31.47;16.83;99414.00;5069261;28;20046;-56
2023/05/30 10:50:51;;;;;;;3.00;1.80;;;;;;;30.69;17.62;99414.81;5069287;28;20085;-59
2023/05/30 10:53:18;;;;;;;5.05;1.70;;;;;;;31.34;17.88;99413.06;5051568;28;20109;-57
2023/05/30 10:55:46;;;;;;;2.08;1.70;;;;;;;33.24;16.58;99408.00;5068587;28;20120;-59
2023/05/30 10:58:36;;;;;;;3.58;2.05;;;;;;;35.88;15.01;99410.66;5085790;28;20645;-58
2023/05/30 11:01:27;;;;;;;2.50;2.03;;;;;;;37.25;13.89;99416.34;5067594;28;20048;-58
2023/05/30 11:04:03;;;;;;;5.50;2.20;;;;;;;36.33;13.83;99414.78;5085182;28;20051;-58
2023/05/30 11:06:33;;;;;;;4.07;2.08;;;;;;;36.81;13.42;99373.38;5084918;28;20047;-60
2023/05/30 11:09:17;;;;;;;3.75;2.17;;;;;;;38.37;12.71;99405.44;5066731;28;20032;-58
2023/05/30 11:11:45;;;;;;;3.90;2.03;;;;;;;39.62;12.21;99378.22;5017134;28;20048;-59
2023/05/30 11:14:13;;;;;;;4.22;2.60;;;;;;;40.69;11.63;99396.88;5049367;28;20039;-60
2023/05/30 11:16:55;;;;;;;6.07;2.30;;;;;;;40.58;11.72;99366.75;5048898;28;20122;-55
2023/05/30 11:19:35;;;;;;;6.28;2.55;;;;;;;40.49;11.86;99386.53;5077568;28;20062;-49
2023/05/30 11:22:03;;;;;;;3.67;2.30;;;;;;;40.49;11.47;99394.72;5060901;28;20043;-53
2023/05/30 11:24:30;;;;;;;4.60;2.08;;;;;;;38.06;12.42;99383.06;5087424;28;20040;-57
2023/05/30 11:26:59;;;;;;;3.47;2.00;;;;;;;37.11;12.71;99389.66;5086911;28;20118;-56
2023/05/30 11:29:43;;;;;;;2.05;1.85;;;;;;;37.66;12.79;99374.78;5082208;28;20036;-57
2023/05/30 11:32:11;;;;;;;4.72;2.30;;;;;;;38.64;12.18;99375.84;5079068;28;20040;-59
2023/05/30 11:34:37;;;;;;;2.83;2.05;;;;;;;38.53;11.91;99369.41;5065428;28;20055;-59
2023/05/30 11:37:04;;;;;;;5.53;2.47;;;;;;;39.52;11.49;99370.69;5066989;28;20036;-59
2023/05/30 11:39:33;;;;;;;8.45;2.92;;;;;;;40.70;11.32;99366.66;5070730;28;20055;-56